KIRK/IRK METAR and TAF weather

Enter ICAO airport designator
Station Type Date Time Source
KIRK METAR 2021/03/06 03:55 UTC NOAA

KIRK 060355Z AUTO 14005KT 10SM FEW100 04/M04 A3033 RMK AO2 SLP281 T00441039


Station Type Date Time Source
KIRK Decoded METAR 2021/03/06 03:55 UTC NOAA

KIRKSVILLE REGIONAL AIRPORT , MO, United States (KIRK) 40-06N 092-33W 293M
Mar 05, 2021 - 10:55 PM EST / 2021.03.06 0355 UTC
Wind: from the SE (140 degrees) at 6 MPH (5 KT):0
Visibility: 10 mile(s):0
Sky conditions: mostly clear
Temperature: 39.9 F (4.4 C)
Dew Point: 25.0 F (-3.9 C)
Relative Humidity: 54%
Pressure (altimeter): 30.33 in. Hg (1027 hPa)
ob: KIRK 060355Z AUTO 14005KT 10SM FEW100 04/M04 A3033 RMK AO2 SLP281 T00441039
cycle: 4

Station Type Date Time Source
KIRK TAF UTC NOAA

Error!

Example: see airport list